sensor_id;sensor_type;location;lat;lon;timestamp;temperature;humidity
10566;DHT22;5331;48.148;16.326;2022-08-19T00:00:49;21.90;1.00
10566;DHT22;5331;48.148;16.326;2022-08-19T00:03:16;21.80;1.00
10566;DHT22;5331;48.148;16.326;2022-08-19T00:05:45;21.80;1.00
10566;DHT22;5331;48.148;16.326;2022-08-19T00:08:12;21.80;1.00
10566;DHT22;5331;48.148;16.326;2022-08-19T00:10:39;21.80;1.00
10566;DHT22;5331;48.148;16.326;2022-08-19T00:13:06;21.80;1.00
10566;DHT22;5331;48.148;16.326;2022-08-19T00:15:33;21.80;1.00
10566;DHT22;5331;48.148;16.326;2022-08-19T00:18:00;21.80;1.00
10566;DHT22;5331;48.148;16.326;2022-08-19T00:20:27;21.80;1.00
10566;DHT22;5331;48.148;16.326;2022-08-19T00:22:55;21.70;1.00
10566;DHT22;5331;48.148;16.326;2022-08-19T00:25:22;21.70;1.00
10566;DHT22;5331;48.148;16.326;2022-08-19T00:27:49;21.70;1.00
10566;DHT22;5331;48.148;16.326;2022-08-19T00:30:16;21.60;1.00
10566;DHT22;5331;48.148;16.326;2022-08-19T00:32:43;21.60;1.00
10566;DHT22;5331;48.148;16.326;2022-08-19T00:35:10;21.60;1.00
10566;DHT22;5331;48.148;16.326;2022-08-19T00:37:38;21.60;1.00
10566;DHT22;5331;48.148;16.326;2022-08-19T00:40:12;21.50;1.00
10566;DHT22;5331;48.148;16.326;2022-08-19T00:42:39;21.50;1.00
10566;DHT22;5331;48.148;16.326;2022-08-19T00:45:15;21.40;1.00
10566;DHT22;5331;48.148;16.326;2022-08-19T00:47:42;21.40;1.00
10566;DHT22;5331;48.148;16.326;2022-08-19T00:50:12;21.40;1.00
10566;DHT22;5331;48.148;16.326;2022-08-19T00:52:43;21.40;1.00
10566;DHT22;5331;48.148;16.326;2022-08-19T00:55:16;21.40;1.00
10566;DHT22;5331;48.148;16.326;2022-08-19T00:57:46;21.40;1.00
10566;DHT22;5331;48.148;16.326;2022-08-19T01:00:17;21.40;1.00
10566;DHT22;5331;48.148;16.326;2022-08-19T01:02:44;21.30;1.00
10566;DHT22;5331;48.148;16.326;2022-08-19T01:05:14;21.30;1.00
10566;DHT22;5331;48.148;16.326;2022-08-19T01:07:41;21.30;1.00
10566;DHT22;5331;48.148;16.326;2022-08-19T01:10:13;21.30;1.00
10566;DHT22;5331;48.148;16.326;2022-08-19T01:12:41;21.30;1.00
10566;DHT22;5331;48.148;16.326;2022-08-19T01:15:10;21.40;1.00
10566;DHT22;5331;48.148;16.326;2022-08-19T01:17:39;21.40;1.00
10566;DHT22;5331;48.148;16.326;2022-08-19T01:20:10;21.40;1.00
10566;DHT22;5331;48.148;16.326;2022-08-19T01:22:43;21.30;1.00
10566;DHT22;5331;48.148;16.326;2022-08-19T01:25:12;21.30;1.00
10566;DHT22;5331;48.148;16.326;2022-08-19T01:27:39;21.30;1.00
10566;DHT22;5331;48.148;16.326;2022-08-19T01:30:08;21.20;1.00
10566;DHT22;5331;48.148;16.326;2022-08-19T01:32:35;21.20;1.00
10566;DHT22;5331;48.148;16.326;2022-08-19T01:35:03;21.20;1.00
10566;DHT22;5331;48.148;16.326;2022-08-19T01:37:40;21.20;1.00
10566;DHT22;5331;48.148;16.326;2022-08-19T01:40:10;21.10;1.00
10566;DHT22;5331;48.148;16.326;2022-08-19T01:42:37;21.20;1.00
10566;DHT22;5331;48.148;16.326;2022-08-19T01:45:05;21.20;1.00
10566;DHT22;5331;48.148;16.326;2022-08-19T01:47:33;21.10;1.00
10566;DHT22;5331;48.148;16.326;2022-08-19T01:50:00;21.10;1.00
10566;DHT22;5331;48.148;16.326;2022-08-19T01:52:27;21.10;1.00
10566;DHT22;5331;48.148;16.326;2022-08-19T01:54:54;21.00;1.00
10566;DHT22;5331;48.148;16.326;2022-08-19T01:57:23;21.10;1.00
10566;DHT22;5331;48.148;16.326;2022-08-19T01:59:50;21.10;1.00
10566;DHT22;5331;48.148;16.326;2022-08-19T02:02:17;21.00;1.00
10566;DHT22;5331;48.148;16.326;2022-08-19T02:04:44;21.00;1.00
10566;DHT22;5331;48.148;16.326;2022-08-19T02:07:11;21.00;1.00
10566;DHT22;5331;48.148;16.326;2022-08-19T02:09:38;21.00;1.00
10566;DHT22;5331;48.148;16.326;2022-08-19T02:12:07;21.00;1.00
10566;DHT22;5331;48.148;16.326;2022-08-19T02:14:36;21.10;1.00
10566;DHT22;5331;48.148;16.326;2022-08-19T02:17:03;21.00;1.00
10566;DHT22;5331;48.148;16.326;2022-08-19T02:19:30;21.10;1.00
10566;DHT22;5331;48.148;16.326;2022-08-19T02:21:58;21.10;1.00
10566;DHT22;5331;48.148;16.326;2022-08-19T02:24:26;21.00;1.00
10566;DHT22;5331;48.148;16.326;2022-08-19T02:26:53;20.90;1.00
10566;DHT22;5331;48.148;16.326;2022-08-19T02:29:20;20.90;1.00
10566;DHT22;5331;48.148;16.326;2022-08-19T02:31:48;21.00;1.00
10566;DHT22;5331;48.148;16.326;2022-08-19T02:34:16;20.90;1.00
10566;DHT22;5331;48.148;16.326;2022-08-19T02:36:43;21.00;1.00
10566;DHT22;5331;48.148;16.326;2022-08-19T02:39:10;21.10;1.00
10566;DHT22;5331;48.148;16.326;2022-08-19T02:41:36;21.10;1.00
10566;DHT22;5331;48.148;16.326;2022-08-19T02:44:03;21.20;1.00
10566;DHT22;5331;48.148;16.326;2022-08-19T02:46:32;21.20;1.00
10566;DHT22;5331;48.148;16.326;2022-08-19T02:49:03;21.20;1.00
10566;DHT22;5331;48.148;16.326;2022-08-19T02:51:34;21.30;1.00
10566;DHT22;5331;48.148;16.326;2022-08-19T02:54:02;21.30;1.00
10566;DHT22;5331;48.148;16.326;2022-08-19T02:56:30;21.30;1.00
10566;DHT22;5331;48.148;16.326;2022-08-19T02:58:57;21.30;1.00
10566;DHT22;5331;48.148;16.326;2022-08-19T03:01:27;21.20;1.00
10566;DHT22;5331;48.148;16.326;2022-08-19T03:03:55;21.20;1.00
10566;DHT22;5331;48.148;16.326;2022-08-19T03:06:24;21.10;1.00
10566;DHT22;5331;48.148;16.326;2022-08-19T03:08:51;21.00;1.00
10566;DHT22;5331;48.148;16.326;2022-08-19T03:11:22;21.00;1.00
10566;DHT22;5331;48.148;16.326;2022-08-19T03:13:50;21.00;1.00
10566;DHT22;5331;48.148;16.326;2022-08-19T03:16:18;21.00;1.00
10566;DHT22;5331;48.148;16.326;2022-08-19T03:18:45;20.90;1.00
10566;DHT22;5331;48.148;16.326;2022-08-19T03:21:15;20.90;1.00
10566;DHT22;5331;48.148;16.326;2022-08-19T03:23:44;20.90;1.00
10566;DHT22;5331;48.148;16.326;2022-08-19T03:26:11;20.90;1.00
10566;DHT22;5331;48.148;16.326;2022-08-19T03:28:40;20.90;1.00
10566;DHT22;5331;48.148;16.326;2022-08-19T03:31:11;20.80;1.00
10566;DHT22;5331;48.148;16.326;2022-08-19T03:33:38;20.90;1.00
10566;DHT22;5331;48.148;16.326;2022-08-19T03:36:07;20.90;1.00
10566;DHT22;5331;48.148;16.326;2022-08-19T03:38:36;20.90;1.00
10566;DHT22;5331;48.148;16.326;2022-08-19T03:41:07;21.00;1.00
10566;DHT22;5331;48.148;16.326;2022-08-19T03:43:35;21.10;1.00
10566;DHT22;5331;48.148;16.326;2022-08-19T03:46:04;21.10;1.00
10566;DHT22;5331;48.148;16.326;2022-08-19T03:48:32;21.10;1.00
10566;DHT22;5331;48.148;16.326;2022-08-19T03:51:00;21.10;1.00
10566;DHT22;5331;48.148;16.326;2022-08-19T03:53:28;21.10;1.00
10566;DHT22;5331;48.148;16.326;2022-08-19T03:55:56;21.20;1.00
10566;DHT22;5331;48.148;16.326;2022-08-19T03:58:27;21.20;1.00
10566;DHT22;5331;48.148;16.326;2022-08-19T04:00:54;21.20;1.00
10566;DHT22;5331;48.148;16.326;2022-08-19T04:03:22;21.20;1.00
10566;DHT22;5331;48.148;16.326;2022-08-19T04:05:50;21.10;1.00
10566;DHT22;5331;48.148;16.326;2022-08-19T04:08:17;21.10;1.00
10566;DHT22;5331;48.148;16.326;2022-08-19T04:10:46;21.10;1.00
10566;DHT22;5331;48.148;16.326;2022-08-19T04:13:13;21.10;1.00
10566;DHT22;5331;48.148;16.326;2022-08-19T04:15:42;21.20;1.00
10566;DHT22;5331;48.148;16.326;2022-08-19T04:18:10;21.30;1.00
10566;DHT22;5331;48.148;16.326;2022-08-19T04:20:42;21.30;1.00
10566;DHT22;5331;48.148;16.326;2022-08-19T04:23:09;21.30;1.00
10566;DHT22;5331;48.148;16.326;2022-08-19T04:25:38;21.40;1.00
10566;DHT22;5331;48.148;16.326;2022-08-19T04:28:05;21.50;1.00
10566;DHT22;5331;48.148;16.326;2022-08-19T04:30:37;21.50;1.00
10566;DHT22;5331;48.148;16.326;2022-08-19T04:33:06;21.60;1.00
10566;DHT22;5331;48.148;16.326;2022-08-19T04:35:38;21.70;1.00
10566;DHT22;5331;48.148;16.326;2022-08-19T04:38:05;21.80;1.00
10566;DHT22;5331;48.148;16.326;2022-08-19T04:40:33;21.90;1.00
10566;DHT22;5331;48.148;16.326;2022-08-19T04:43:18;21.90;1.00
10566;DHT22;5331;48.148;16.326;2022-08-19T04:45:45;22.00;1.00
10566;DHT22;5331;48.148;16.326;2022-08-19T04:48:14;22.10;1.00
10566;DHT22;5331;48.148;16.326;2022-08-19T04:50:42;22.20;1.00
10566;DHT22;5331;48.148;16.326;2022-08-19T04:53:09;22.20;1.00
10566;DHT22;5331;48.148;16.326;2022-08-19T04:55:39;22.30;1.00
10566;DHT22;5331;48.148;16.326;2022-08-19T04:58:06;22.40;1.00
10566;DHT22;5331;48.148;16.326;2022-08-19T05:00:33;22.40;1.00
10566;DHT22;5331;48.148;16.326;2022-08-19T05:03:00;22.50;1.00
10566;DHT22;5331;48.148;16.326;2022-08-19T05:05:28;22.50;1.00
10566;DHT22;5331;48.148;16.326;2022-08-19T05:07:57;22.60;1.00
10566;DHT22;5331;48.148;16.326;2022-08-19T05:10:24;22.70;1.00
10566;DHT22;5331;48.148;16.326;2022-08-19T05:12:51;22.70;1.00
10566;DHT22;5331;48.148;16.326;2022-08-19T05:15:18;22.80;1.00
10566;DHT22;5331;48.148;16.326;2022-08-19T05:17:45;22.80;1.00
10566;DHT22;5331;48.148;16.326;2022-08-19T05:20:26;22.90;1.00
10566;DHT22;5331;48.148;16.326;2022-08-19T05:23:11;23.00;1.00
10566;DHT22;5331;48.148;16.326;2022-08-19T05:25:42;22.90;1.00
10566;DHT22;5331;48.148;16.326;2022-08-19T05:28:10;22.90;1.00
10566;DHT22;5331;48.148;16.326;2022-08-19T05:30:36;22.90;1.00
10566;DHT22;5331;48.148;16.326;2022-08-19T05:33:03;22.90;1.00
10566;DHT22;5331;48.148;16.326;2022-08-19T05:35:30;22.90;1.00
10566;DHT22;5331;48.148;16.326;2022-08-19T05:37:57;23.00;1.00
10566;DHT22;5331;48.148;16.326;2022-08-19T05:40:25;23.00;1.00
10566;DHT22;5331;48.148;16.326;2022-08-19T05:42:52;23.00;1.00
10566;DHT22;5331;48.148;16.326;2022-08-19T05:45:19;23.00;1.00
10566;DHT22;5331;48.148;16.326;2022-08-19T05:47:47;23.00;1.00
10566;DHT22;5331;48.148;16.326;2022-08-19T05:50:14;23.10;1.00
10566;DHT22;5331;48.148;16.326;2022-08-19T05:52:43;23.20;1.00
10566;DHT22;5331;48.148;16.326;2022-08-19T05:55:10;23.20;1.00
10566;DHT22;5331;48.148;16.326;2022-08-19T05:57:39;23.30;1.00
10566;DHT22;5331;48.148;16.326;2022-08-19T06:00:07;23.40;1.00
10566;DHT22;5331;48.148;16.326;2022-08-19T06:02:36;23.40;1.00
10566;DHT22;5331;48.148;16.326;2022-08-19T06:05:04;23.40;1.00
10566;DHT22;5331;48.148;16.326;2022-08-19T06:07:31;23.50;1.00
10566;DHT22;5331;48.148;16.326;2022-08-19T06:09:58;23.40;1.00
10566;DHT22;5331;48.148;16.326;2022-08-19T06:12:25;23.40;1.00
10566;DHT22;5331;48.148;16.326;2022-08-19T06:14:58;23.40;1.00
10566;DHT22;5331;48.148;16.326;2022-08-19T06:17:25;23.50;1.00
10566;DHT22;5331;48.148;16.326;2022-08-19T06:19:52;23.50;1.00
10566;DHT22;5331;48.148;16.326;2022-08-19T06:22:19;23.50;1.00
10566;DHT22;5331;48.148;16.326;2022-08-19T06:24:46;23.60;1.00
10566;DHT22;5331;48.148;16.326;2022-08-19T06:27:13;23.60;1.00
10566;DHT22;5331;48.148;16.326;2022-08-19T06:29:41;23.70;1.00
10566;DHT22;5331;48.148;16.326;2022-08-19T06:32:10;23.80;1.00
10566;DHT22;5331;48.148;16.326;2022-08-19T06:34:37;23.80;1.00
10566;DHT22;5331;48.148;16.326;2022-08-19T06:37:05;23.90;1.00
10566;DHT22;5331;48.148;16.326;2022-08-19T06:39:35;24.00;1.00
10566;DHT22;5331;48.148;16.326;2022-08-19T06:42:04;24.10;1.00
10566;DHT22;5331;48.148;16.326;2022-08-19T06:44:34;24.30;1.00
10566;DHT22;5331;48.148;16.326;2022-08-19T06:47:03;24.40;1.00
10566;DHT22;5331;48.148;16.326;2022-08-19T06:49:32;24.60;1.00
10566;DHT22;5331;48.148;16.326;2022-08-19T06:52:00;24.70;1.00
10566;DHT22;5331;48.148;16.326;2022-08-19T06:54:27;24.70;1.00
10566;DHT22;5331;48.148;16.326;2022-08-19T06:56:55;24.80;1.00
10566;DHT22;5331;48.148;16.326;2022-08-19T06:59:24;24.90;1.00
10566;DHT22;5331;48.148;16.326;2022-08-19T07:01:53;24.90;1.00
10566;DHT22;5331;48.148;16.326;2022-08-19T07:04:22;25.10;1.00
10566;DHT22;5331;48.148;16.326;2022-08-19T07:06:57;25.40;1.00
10566;DHT22;5331;48.148;16.326;2022-08-19T07:09:24;25.60;1.00
10566;DHT22;5331;48.148;16.326;2022-08-19T07:11:52;25.90;1.00
10566;DHT22;5331;48.148;16.326;2022-08-19T07:14:22;26.20;1.00
10566;DHT22;5331;48.148;16.326;2022-08-19T07:16:50;26.10;1.00
10566;DHT22;5331;48.148;16.326;2022-08-19T07:19:18;26.10;1.00
10566;DHT22;5331;48.148;16.326;2022-08-19T07:21:47;26.10;1.00
10566;DHT22;5331;48.148;16.326;2022-08-19T07:24:16;26.30;1.00
10566;DHT22;5331;48.148;16.326;2022-08-19T07:26:43;26.20;1.00
10566;DHT22;5331;48.148;16.326;2022-08-19T07:29:12;26.30;1.00
10566;DHT22;5331;48.148;16.326;2022-08-19T07:31:39;26.40;1.00
10566;DHT22;5331;48.148;16.326;2022-08-19T07:34:10;26.60;1.00
10566;DHT22;5331;48.148;16.326;2022-08-19T07:36:41;26.90;1.00
10566;DHT22;5331;48.148;16.326;2022-08-19T07:39:17;27.20;1.00
10566;DHT22;5331;48.148;16.326;2022-08-19T07:41:46;27.60;1.00
10566;DHT22;5331;48.148;16.326;2022-08-19T07:44:14;27.90;1.00
10566;DHT22;5331;48.148;16.326;2022-08-19T07:46:44;28.20;1.00
10566;DHT22;5331;48.148;16.326;2022-08-19T07:49:12;28.40;1.00
10566;DHT22;5331;48.148;16.326;2022-08-19T07:51:43;28.80;1.00
10566;DHT22;5331;48.148;16.326;2022-08-19T07:54:10;29.10;1.00
10566;DHT22;5331;48.148;16.326;2022-08-19T07:56:37;29.20;1.00
10566;DHT22;5331;48.148;16.326;2022-08-19T07:59:06;29.30;1.00
10566;DHT22;5331;48.148;16.326;2022-08-19T08:01:35;29.60;1.00
10566;DHT22;5331;48.148;16.326;2022-08-19T08:04:02;30.00;1.00
10566;DHT22;5331;48.148;16.326;2022-08-19T08:06:47;30.20;1.00
10566;DHT22;5331;48.148;16.326;2022-08-19T08:09:33;30.00;1.00
10566;DHT22;5331;48.148;16.326;2022-08-19T08:12:03;30.00;1.00
10566;DHT22;5331;48.148;16.326;2022-08-19T08:14:35;30.10;1.00
10566;DHT22;5331;48.148;16.326;2022-08-19T08:17:03;30.30;1.00
10566;DHT22;5331;48.148;16.326;2022-08-19T08:19:32;30.30;1.00
10566;DHT22;5331;48.148;16.326;2022-08-19T08:22:00;30.40;1.00
10566;DHT22;5331;48.148;16.326;2022-08-19T08:24:29;30.70;1.00
10566;DHT22;5331;48.148;16.326;2022-08-19T08:26:59;30.80;1.00
10566;DHT22;5331;48.148;16.326;2022-08-19T08:29:27;31.10;1.00
10566;DHT22;5331;48.148;16.326;2022-08-19T08:31:56;31.20;1.00
10566;DHT22;5331;48.148;16.326;2022-08-19T08:34:23;31.20;1.00
10566;DHT22;5331;48.148;16.326;2022-08-19T08:36:50;30.70;1.00
10566;DHT22;5331;48.148;16.326;2022-08-19T08:39:19;30.50;1.00
10566;DHT22;5331;48.148;16.326;2022-08-19T08:41:56;30.40;1.00
10566;DHT22;5331;48.148;16.326;2022-08-19T08:44:31;30.70;1.00
10566;DHT22;5331;48.148;16.326;2022-08-19T08:47:04;30.70;1.00
10566;DHT22;5331;48.148;16.326;2022-08-19T08:49:40;30.60;1.00
10566;DHT22;5331;48.148;16.326;2022-08-19T08:52:22;30.70;1.00
10566;DHT22;5331;48.148;16.326;2022-08-19T08:54:58;30.80;1.00
10566;DHT22;5331;48.148;16.326;2022-08-19T08:57:28;30.70;1.00
10566;DHT22;5331;48.148;16.326;2022-08-19T09:00:00;30.30;1.00
10566;DHT22;5331;48.148;16.326;2022-08-19T09:02:31;30.20;1.00
10566;DHT22;5331;48.148;16.326;2022-08-19T09:04:58;30.10;1.00
10566;DHT22;5331;48.148;16.326;2022-08-19T09:07:37;30.20;1.00
10566;DHT22;5331;48.148;16.326;2022-08-19T09:10:11;30.30;1.00
10566;DHT22;5331;48.148;16.326;2022-08-19T09:12:47;30.30;1.00
10566;DHT22;5331;48.148;16.326;2022-08-19T09:15:22;30.50;1.00
10566;DHT22;5331;48.148;16.326;2022-08-19T09:17:54;30.50;1.00
10566;DHT22;5331;48.148;16.326;2022-08-19T09:20:23;30.50;1.00
10566;DHT22;5331;48.148;16.326;2022-08-19T09:22:51;30.70;1.00
10566;DHT22;5331;48.148;16.326;2022-08-19T09:25:19;31.20;1.00
10566;DHT22;5331;48.148;16.326;2022-08-19T09:27:47;31.40;1.00
10566;DHT22;5331;48.148;16.326;2022-08-19T09:30:18;31.30;1.00
10566;DHT22;5331;48.148;16.326;2022-08-19T09:32:46;31.30;1.00
10566;DHT22;5331;48.148;16.326;2022-08-19T09:35:15;31.60;1.00
10566;DHT22;5331;48.148;16.326;2022-08-19T09:37:42;31.90;1.00
10566;DHT22;5331;48.148;16.326;2022-08-19T09:40:11;32.80;1.00
10566;DHT22;5331;48.148;16.326;2022-08-19T09:42:38;32.80;1.00
10566;DHT22;5331;48.148;16.326;2022-08-19T09:45:06;33.10;1.00
10566;DHT22;5331;48.148;16.326;2022-08-19T09:47:33;33.10;1.00
10566;DHT22;5331;48.148;16.326;2022-08-19T09:50:04;33.10;1.00
10566;DHT22;5331;48.148;16.326;2022-08-19T09:52:34;33.50;1.00
10566;DHT22;5331;48.148;16.326;2022-08-19T09:55:02;33.50;1.00
10566;DHT22;5331;48.148;16.326;2022-08-19T09:57:29;33.70;1.00
10566;DHT22;5331;48.148;16.326;2022-08-19T09:59:56;33.60;1.00
10566;DHT22;5331;48.148;16.326;2022-08-19T10:02:23;33.60;1.00
10566;DHT22;5331;48.148;16.326;2022-08-19T10:04:51;33.30;1.00
10566;DHT22;5331;48.148;16.326;2022-08-19T10:07:37;32.90;1.00
10566;DHT22;5331;48.148;16.326;2022-08-19T10:10:06;32.90;1.00
10566;DHT22;5331;48.148;16.326;2022-08-19T10:12:34;32.90;1.00
10566;DHT22;5331;48.148;16.326;2022-08-19T10:15:02;32.80;1.00
10566;DHT22;5331;48.148;16.326;2022-08-19T10:17:29;32.60;1.00
10566;DHT22;5331;48.148;16.326;2022-08-19T10:20:01;32.40;1.00
10566;DHT22;5331;48.148;16.326;2022-08-19T10:22:30;32.30;1.00
10566;DHT22;5331;48.148;16.326;2022-08-19T10:24:58;32.30;1.00
10566;DHT22;5331;48.148;16.326;2022-08-19T10:27:25;32.10;1.00
10566;DHT22;5331;48.148;16.326;2022-08-19T10:29:52;31.40;1.00
10566;DHT22;5331;48.148;16.326;2022-08-19T10:32:19;31.30;1.00
10566;DHT22;5331;48.148;16.326;2022-08-19T10:34:47;31.10;1.00
10566;DHT22;5331;48.148;16.326;2022-08-19T10:37:16;30.80;1.00
10566;DHT22;5331;48.148;16.326;2022-08-19T10:39:45;30.50;1.00
10566;DHT22;5331;48.148;16.326;2022-08-19T10:42:14;30.30;1.00
10566;DHT22;5331;48.148;16.326;2022-08-19T10:44:42;29.90;1.00
10566;DHT22;5331;48.148;16.326;2022-08-19T10:47:09;29.60;1.00
10566;DHT22;5331;48.148;16.326;2022-08-19T10:49:36;29.40;1.00
10566;DHT22;5331;48.148;16.326;2022-08-19T10:52:23;29.30;1.00
10566;DHT22;5331;48.148;16.326;2022-08-19T10:55:04;29.20;1.00
10566;DHT22;5331;48.148;16.326;2022-08-19T10:57:50;28.90;1.00
10566;DHT22;5331;48.148;16.326;2022-08-19T11:00:19;28.80;1.00
10566;DHT22;5331;48.148;16.326;2022-08-19T11:02:46;28.70;1.00
10566;DHT22;5331;48.148;16.326;2022-08-19T11:05:13;28.50;1.00
10566;DHT22;5331;48.148;16.326;2022-08-19T11:07:40;28.40;1.00
10566;DHT22;5331;48.148;16.326;2022-08-19T11:10:10;28.10;1.00
10566;DHT22;5331;48.148;16.326;2022-08-19T11:12:39;28.10;1.00
10566;DHT22;5331;48.148;16.326;2022-08-19T11:15:09;27.90;1.00
10566;DHT22;5331;48.148;16.326;2022-08-19T11:17:37;27.90;1.00
10566;DHT22;5331;48.148;16.326;2022-08-19T11:20:07;27.90;1.00
10566;DHT22;5331;48.148;16.326;2022-08-19T11:22:34;27.90;1.00
10566;DHT22;5331;48.148;16.326;2022-08-19T11:25:01;27.90;1.00
10566;DHT22;5331;48.148;16.326;2022-08-19T11:27:29;27.90;1.00
10566;DHT22;5331;48.148;16.326;2022-08-19T11:29:56;28.10;1.00
10566;DHT22;5331;48.148;16.326;2022-08-19T11:32:24;28.10;1.00
10566;DHT22;5331;48.148;16.326;2022-08-19T11:34:51;28.40;1.00
10566;DHT22;5331;48.148;16.326;2022-08-19T11:37:19;28.20;1.00
10566;DHT22;5331;48.148;16.326;2022-08-19T11:39:46;28.40;1.00
10566;DHT22;5331;48.148;16.326;2022-08-19T11:42:13;28.30;1.00
10566;DHT22;5331;48.148;16.326;2022-08-19T11:44:58;28.40;1.00
10566;DHT22;5331;48.148;16.326;2022-08-19T11:47:26;28.30;1.00
10566;DHT22;5331;48.148;16.326;2022-08-19T11:49:53;28.40;1.00
10566;DHT22;5331;48.148;16.326;2022-08-19T11:52:20;28.50;1.00
10566;DHT22;5331;48.148;16.326;2022-08-19T11:54:47;29.00;1.00
10566;DHT22;5331;48.148;16.326;2022-08-19T11:57:14;29.40;1.00
10566;DHT22;5331;48.148;16.326;2022-08-19T11:59:42;29.50;1.00
10566;DHT22;5331;48.148;16.326;2022-08-19T12:02:13;29.60;1.00
10566;DHT22;5331;48.148;16.326;2022-08-19T12:04:42;29.60;1.00
10566;DHT22;5331;48.148;16.326;2022-08-19T12:07:09;29.50;1.00
10566;DHT22;5331;48.148;16.326;2022-08-19T12:09:36;29.40;1.00
10566;DHT22;5331;48.148;16.326;2022-08-19T12:12:05;29.30;1.00
10566;DHT22;5331;48.148;16.326;2022-08-19T12:14:32;29.30;1.00
10566;DHT22;5331;48.148;16.326;2022-08-19T12:16:59;29.30;1.00
10566;DHT22;5331;48.148;16.326;2022-08-19T12:19:27;29.20;1.00
10566;DHT22;5331;48.148;16.326;2022-08-19T12:22:00;29.40;1.00
10566;DHT22;5331;48.148;16.326;2022-08-19T12:24:30;29.50;1.00
10566;DHT22;5331;48.148;16.326;2022-08-19T12:26:58;29.70;1.00
10566;DHT22;5331;48.148;16.326;2022-08-19T12:29:27;29.90;1.00
10566;DHT22;5331;48.148;16.326;2022-08-19T12:31:55;30.20;1.00
10566;DHT22;5331;48.148;16.326;2022-08-19T12:34:26;30.30;1.00
10566;DHT22;5331;48.148;16.326;2022-08-19T12:36:55;30.10;1.00
10566;DHT22;5331;48.148;16.326;2022-08-19T12:39:24;29.70;1.00
10566;DHT22;5331;48.148;16.326;2022-08-19T12:41:51;29.40;1.00
10566;DHT22;5331;48.148;16.326;2022-08-19T12:44:18;29.20;1.00
10566;DHT22;5331;48.148;16.326;2022-08-19T12:46:46;29.00;1.00
10566;DHT22;5331;48.148;16.326;2022-08-19T12:49:13;28.80;1.00
10566;DHT22;5331;48.148;16.326;2022-08-19T12:51:41;28.70;1.00
10566;DHT22;5331;48.148;16.326;2022-08-19T12:54:08;28.50;1.00
10566;DHT22;5331;48.148;16.326;2022-08-19T12:56:37;28.20;1.00
10566;DHT22;5331;48.148;16.326;2022-08-19T12:59:04;28.10;1.00
10566;DHT22;5331;48.148;16.326;2022-08-19T13:01:34;28.00;1.00
10566;DHT22;5331;48.148;16.326;2022-08-19T13:04:00;28.10;1.00
10566;DHT22;5331;48.148;16.326;2022-08-19T13:06:27;28.00;1.00
10566;DHT22;5331;48.148;16.326;2022-08-19T13:08:54;28.00;1.00
10566;DHT22;5331;48.148;16.326;2022-08-19T13:11:22;28.10;1.00
10566;DHT22;5331;48.148;16.326;2022-08-19T13:13:52;28.00;1.00
10566;DHT22;5331;48.148;16.326;2022-08-19T13:16:20;28.00;1.00
10566;DHT22;5331;48.148;16.326;2022-08-19T13:18:48;27.90;1.00
10566;DHT22;5331;48.148;16.326;2022-08-19T13:21:18;27.90;1.00
10566;DHT22;5331;48.148;16.326;2022-08-19T13:23:47;27.80;1.00
10566;DHT22;5331;48.148;16.326;2022-08-19T13:26:14;27.70;1.00
10566;DHT22;5331;48.148;16.326;2022-08-19T13:28:42;27.70;1.00
10566;DHT22;5331;48.148;16.326;2022-08-19T13:31:29;27.60;1.00
10566;DHT22;5331;48.148;16.326;2022-08-19T13:34:15;27.50;1.00
10566;DHT22;5331;48.148;16.326;2022-08-19T13:36:43;27.40;1.00
10566;DHT22;5331;48.148;16.326;2022-08-19T13:39:10;27.30;1.00
10566;DHT22;5331;48.148;16.326;2022-08-19T13:41:43;27.10;1.00
10566;DHT22;5331;48.148;16.326;2022-08-19T13:44:13;27.20;1.00
10566;DHT22;5331;48.148;16.326;2022-08-19T13:46:41;27.10;1.00
10566;DHT22;5331;48.148;16.326;2022-08-19T13:49:11;27.10;1.00
10566;DHT22;5331;48.148;16.326;2022-08-19T13:51:38;27.10;1.00
10566;DHT22;5331;48.148;16.326;2022-08-19T13:54:06;27.20;1.00
10566;DHT22;5331;48.148;16.326;2022-08-19T13:56:34;27.20;1.00
10566;DHT22;5331;48.148;16.326;2022-08-19T13:59:02;27.30;1.00
10566;DHT22;5331;48.148;16.326;2022-08-19T14:01:28;27.30;1.00
10566;DHT22;5331;48.148;16.326;2022-08-19T14:03:57;27.30;1.00
10566;DHT22;5331;48.148;16.326;2022-08-19T14:06:24;27.20;1.00
10566;DHT22;5331;48.148;16.326;2022-08-19T14:08:51;27.20;1.00
10566;DHT22;5331;48.148;16.326;2022-08-19T14:11:18;27.20;1.00
10566;DHT22;5331;48.148;16.326;2022-08-19T14:13:45;27.30;1.00
10566;DHT22;5331;48.148;16.326;2022-08-19T14:16:16;27.40;1.00
10566;DHT22;5331;48.148;16.326;2022-08-19T14:18:43;27.50;1.00
10566;DHT22;5331;48.148;16.326;2022-08-19T14:21:17;27.60;1.00
10566;DHT22;5331;48.148;16.326;2022-08-19T14:23:45;27.80;1.00
10566;DHT22;5331;48.148;16.326;2022-08-19T14:26:15;27.90;1.00
10566;DHT22;5331;48.148;16.326;2022-08-19T14:28:44;28.10;1.00
10566;DHT22;5331;48.148;16.326;2022-08-19T14:31:12;28.20;1.00
10566;DHT22;5331;48.148;16.326;2022-08-19T14:33:40;28.40;1.00
10566;DHT22;5331;48.148;16.326;2022-08-19T14:36:08;28.50;1.00
10566;DHT22;5331;48.148;16.326;2022-08-19T14:38:36;28.40;1.00
10566;DHT22;5331;48.148;16.326;2022-08-19T14:41:08;28.30;1.00
10566;DHT22;5331;48.148;16.326;2022-08-19T14:43:35;28.20;1.00
10566;DHT22;5331;48.148;16.326;2022-08-19T14:46:02;28.20;1.00
10566;DHT22;5331;48.148;16.326;2022-08-19T14:48:29;28.20;1.00
10566;DHT22;5331;48.148;16.326;2022-08-19T14:50:56;28.20;1.00
10566;DHT22;5331;48.148;16.326;2022-08-19T14:53:23;28.20;1.00
10566;DHT22;5331;48.148;16.326;2022-08-19T14:55:52;28.10;1.00
10566;DHT22;5331;48.148;16.326;2022-08-19T14:58:19;28.10;1.00
10566;DHT22;5331;48.148;16.326;2022-08-19T15:00:46;28.20;1.00
10566;DHT22;5331;48.148;16.326;2022-08-19T15:03:13;28.10;1.00
10566;DHT22;5331;48.148;16.326;2022-08-19T15:05:40;28.10;1.00
10566;DHT22;5331;48.148;16.326;2022-08-19T15:08:07;28.10;1.00
10566;DHT22;5331;48.148;16.326;2022-08-19T15:10:34;28.00;1.00
10566;DHT22;5331;48.148;16.326;2022-08-19T15:13:02;28.00;1.00
10566;DHT22;5331;48.148;16.326;2022-08-19T15:15:29;28.00;1.00
10566;DHT22;5331;48.148;16.326;2022-08-19T15:17:56;28.00;1.00
10566;DHT22;5331;48.148;16.326;2022-08-19T15:20:28;27.90;1.00
10566;DHT22;5331;48.148;16.326;2022-08-19T15:22:56;27.80;1.00
10566;DHT22;5331;48.148;16.326;2022-08-19T15:25:24;27.80;1.00
10566;DHT22;5331;48.148;16.326;2022-08-19T15:27:51;27.80;1.00
10566;DHT22;5331;48.148;16.326;2022-08-19T15:30:22;27.80;1.00
10566;DHT22;5331;48.148;16.326;2022-08-19T15:32:50;27.80;1.00
10566;DHT22;5331;48.148;16.326;2022-08-19T15:35:18;27.60;1.00
10566;DHT22;5331;48.148;16.326;2022-08-19T15:37:47;27.60;1.00
10566;DHT22;5331;48.148;16.326;2022-08-19T15:40:14;27.60;1.00
10566;DHT22;5331;48.148;16.326;2022-08-19T15:42:41;27.70;1.00
10566;DHT22;5331;48.148;16.326;2022-08-19T15:45:10;27.60;1.00
10566;DHT22;5331;48.148;16.326;2022-08-19T15:47:39;27.60;1.00
10566;DHT22;5331;48.148;16.326;2022-08-19T15:50:07;27.70;1.00
10566;DHT22;5331;48.148;16.326;2022-08-19T15:52:34;27.70;1.00
10566;DHT22;5331;48.148;16.326;2022-08-19T15:55:04;27.90;1.00